sensor_id;sensor_type;location;lat;lon;timestamp;pressure;altitude;pressure_sealevel;temperature;humidity
59104;BME280;51449;51.676;5.812;2022-08-03T00:02:11;101455.03;;;21.51;65.85
59104;BME280;51449;51.676;5.812;2022-08-03T00:04:33;101448.97;;;21.45;65.85
59104;BME280;51449;51.676;5.812;2022-08-03T00:06:55;101453.38;;;21.43;65.92
59104;BME280;51449;51.676;5.812;2022-08-03T00:09:17;101448.56;;;21.40;66.11
59104;BME280;51449;51.676;5.812;2022-08-03T00:11:39;101455.72;;;21.37;66.22
59104;BME280;51449;51.676;5.812;2022-08-03T00:14:02;101450.91;;;21.34;66.13
59104;BME280;51449;51.676;5.812;2022-08-03T00:16:24;101438.88;;;21.30;66.03
59104;BME280;51449;51.676;5.812;2022-08-03T00:18:46;101450.88;;;21.27;66.25
59104;BME280;51449;51.676;5.812;2022-08-03T00:21:08;101460.47;;;21.22;66.40
59104;BME280;51449;51.676;5.812;2022-08-03T00:23:30;101454.81;;;21.15;66.45
59104;BME280;51449;51.676;5.812;2022-08-03T00:26:13;101453.19;;;21.10;66.49
59104;BME280;51449;51.676;5.812;2022-08-03T00:28:35;101454.78;;;21.08;66.57
59104;BME280;51449;51.676;5.812;2022-08-03T00:30:56;101450.75;;;21.05;66.75
59104;BME280;51449;51.676;5.812;2022-08-03T00:33:18;101454.34;;;21.02;66.82
59104;BME280;51449;51.676;5.812;2022-08-03T00:35:42;101451.50;;;20.99;67.05
59104;BME280;51449;51.676;5.812;2022-08-03T00:38:11;101451.09;;;20.97;67.05
59104;BME280;51449;51.676;5.812;2022-08-03T00:40:33;101453.09;;;20.96;67.15
59104;BME280;51449;51.676;5.812;2022-08-03T00:43:01;101456.69;;;20.97;67.01
59104;BME280;51449;51.676;5.812;2022-08-03T00:45:31;101449.50;;;20.95;67.21
59104;BME280;51449;51.676;5.812;2022-08-03T00:47:55;101452.25;;;20.92;67.29
59104;BME280;51449;51.676;5.812;2022-08-03T00:50:18;101451.44;;;20.88;67.38
59104;BME280;51449;51.676;5.812;2022-08-03T00:52:43;101448.19;;;20.82;67.50
59104;BME280;51449;51.676;5.812;2022-08-03T00:55:06;101450.59;;;20.80;67.62
59104;BME280;51449;51.676;5.812;2022-08-03T00:57:29;101456.94;;;20.77;67.65
59104;BME280;51449;51.676;5.812;2022-08-03T00:59:53;101451.72;;;20.72;67.69
59104;BME280;51449;51.676;5.812;2022-08-03T01:02:15;101449.69;;;20.69;67.76
59104;BME280;51449;51.676;5.812;2022-08-03T01:04:37;101443.66;;;20.67;68.03
59104;BME280;51449;51.676;5.812;2022-08-03T01:07:10;101444.88;;;20.66;67.90
59104;BME280;51449;51.676;5.812;2022-08-03T01:10:09;101438.44;;;20.62;68.07
59104;BME280;51449;51.676;5.812;2022-08-03T01:12:39;101439.16;;;20.55;68.58
59104;BME280;51449;51.676;5.812;2022-08-03T01:15:20;101437.50;;;20.50;68.44
59104;BME280;51449;51.676;5.812;2022-08-03T01:18:13;101434.69;;;20.47;68.71
59104;BME280;51449;51.676;5.812;2022-08-03T01:20:43;101443.03;;;20.43;68.56
59104;BME280;51449;51.676;5.812;2022-08-03T01:29:58;101430.53;;;20.30;69.12
59104;BME280;51449;51.676;5.812;2022-08-03T01:32:54;101431.69;;;20.25;69.21
59104;BME280;51449;51.676;5.812;2022-08-03T01:35:28;101422.44;;;20.21;69.58
59104;BME280;51449;51.676;5.812;2022-08-03T01:38:02;101426.44;;;20.17;69.75
59104;BME280;51449;51.676;5.812;2022-08-03T01:40:28;101420.78;;;20.13;69.52
59104;BME280;51449;51.676;5.812;2022-08-03T01:42:56;101428.38;;;20.13;69.70
59104;BME280;51449;51.676;5.812;2022-08-03T01:45:20;101427.16;;;20.10;69.76
59104;BME280;51449;51.676;5.812;2022-08-03T01:47:47;101426.34;;;20.09;69.74
59104;BME280;51449;51.676;5.812;2022-08-03T01:50:11;101433.53;;;20.07;69.65
59104;BME280;51449;51.676;5.812;2022-08-03T01:52:39;101429.09;;;20.06;69.58
59104;BME280;51449;51.676;5.812;2022-08-03T01:55:04;101423.50;;;20.06;69.53
59104;BME280;51449;51.676;5.812;2022-08-03T01:57:28;101419.50;;;20.03;69.82
59104;BME280;51449;51.676;5.812;2022-08-03T01:59:51;101417.50;;;20.04;69.86
59104;BME280;51449;51.676;5.812;2022-08-03T02:02:16;101418.69;;;20.03;70.22
59104;BME280;51449;51.676;5.812;2022-08-03T02:04:55;101417.91;;;20.02;70.45
59104;BME280;51449;51.676;5.812;2022-08-03T02:07:22;101413.47;;;20.01;70.52
59104;BME280;51449;51.676;5.812;2022-08-03T02:09:49;101413.47;;;20.01;70.73
59104;BME280;51449;51.676;5.812;2022-08-03T02:12:13;101420.69;;;20.02;70.74
59104;BME280;51449;51.676;5.812;2022-08-03T02:14:40;101414.28;;;20.02;70.65
59104;BME280;51449;51.676;5.812;2022-08-03T02:17:06;101410.66;;;20.01;70.68
59104;BME280;51449;51.676;5.812;2022-08-03T02:19:29;101405.84;;;19.98;70.63
59104;BME280;51449;51.676;5.812;2022-08-03T02:21:56;101412.66;;;19.97;70.69
59104;BME280;51449;51.676;5.812;2022-08-03T02:24:22;101407.81;;;19.94;70.74
59104;BME280;51449;51.676;5.812;2022-08-03T02:26:45;101404.22;;;19.94;70.85
59104;BME280;51449;51.676;5.812;2022-08-03T02:29:16;101412.97;;;19.92;70.89
59104;BME280;51449;51.676;5.812;2022-08-03T02:32:02;101410.94;;;19.89;70.81
59104;BME280;51449;51.676;5.812;2022-08-03T02:34:27;101408.56;;;19.87;70.65
59104;BME280;51449;51.676;5.812;2022-08-03T02:36:51;101401.75;;;19.85;70.90
59104;BME280;51449;51.676;5.812;2022-08-03T02:39:16;101400.13;;;19.84;71.02
59104;BME280;51449;51.676;5.812;2022-08-03T02:41:45;101403.72;;;19.84;71.26
59104;BME280;51449;51.676;5.812;2022-08-03T02:44:12;101400.13;;;19.84;71.31
59104;BME280;51449;51.676;5.812;2022-08-03T02:46:37;101396.94;;;19.85;71.32
59104;BME280;51449;51.676;5.812;2022-08-03T02:49:04;101399.34;;;19.87;71.52
59104;BME280;51449;51.676;5.812;2022-08-03T02:51:48;101395.38;;;19.88;71.53
59104;BME280;51449;51.676;5.812;2022-08-03T02:54:17;101396.16;;;19.88;71.60
59104;BME280;51449;51.676;5.812;2022-08-03T02:56:40;101395.38;;;19.88;71.62
59104;BME280;51449;51.676;5.812;2022-08-03T02:59:05;101403.34;;;19.89;71.69
59104;BME280;51449;51.676;5.812;2022-08-03T03:01:28;101394.16;;;19.85;71.82
59104;BME280;51449;51.676;5.812;2022-08-03T03:03:54;101389.28;;;19.82;71.69
59104;BME280;51449;51.676;5.812;2022-08-03T03:06:18;101386.50;;;19.82;71.69
59104;BME280;51449;51.676;5.812;2022-08-03T03:08:44;101392.94;;;19.83;71.95
59104;BME280;51449;51.676;5.812;2022-08-03T03:11:08;101396.88;;;19.82;72.05
59104;BME280;51449;51.676;5.812;2022-08-03T03:13:31;101396.47;;;19.80;71.92
59104;BME280;51449;51.676;5.812;2022-08-03T03:15:57;101394.50;;;19.80;71.88
59104;BME280;51449;51.676;5.812;2022-08-03T03:18:22;101397.69;;;19.82;71.83
59104;BME280;51449;51.676;5.812;2022-08-03T03:20:46;101404.09;;;19.83;71.70
59104;BME280;51449;51.676;5.812;2022-08-03T03:23:10;101401.31;;;19.83;71.91
59104;BME280;51449;51.676;5.812;2022-08-03T03:25:35;101392.09;;;19.82;71.98
59104;BME280;51449;51.676;5.812;2022-08-03T03:27:59;101395.28;;;19.81;72.12
59104;BME280;51449;51.676;5.812;2022-08-03T03:30:23;101399.25;;;19.80;72.18
59104;BME280;51449;51.676;5.812;2022-08-03T03:32:46;101393.66;;;19.80;72.19
59104;BME280;51449;51.676;5.812;2022-08-03T03:35:09;101398.47;;;19.79;72.33
59104;BME280;51449;51.676;5.812;2022-08-03T03:37:34;101390.88;;;19.80;72.26
59104;BME280;51449;51.676;5.812;2022-08-03T03:39:56;101394.06;;;19.78;72.28
59104;BME280;51449;51.676;5.812;2022-08-03T03:42:18;101389.28;;;19.79;72.32
59104;BME280;51449;51.676;5.812;2022-08-03T03:44:41;101391.28;;;19.78;72.46
59104;BME280;51449;51.676;5.812;2022-08-03T03:47:03;101397.25;;;19.77;72.50
59104;BME280;51449;51.676;5.812;2022-08-03T03:49:25;101392.84;;;19.76;72.69
59104;BME280;51449;51.676;5.812;2022-08-03T03:51:51;101400.03;;;19.77;72.79
59104;BME280;51449;51.676;5.812;2022-08-03T03:54:15;101392.44;;;19.77;72.65
59104;BME280;51449;51.676;5.812;2022-08-03T03:56:37;101391.66;;;19.77;72.65
59104;BME280;51449;51.676;5.812;2022-08-03T03:58:59;101390.47;;;19.78;72.68
59104;BME280;51449;51.676;5.812;2022-08-03T04:01:21;101396.88;;;19.78;73.00
59104;BME280;51449;51.676;5.812;2022-08-03T04:03:43;101398.03;;;19.77;73.06
59104;BME280;51449;51.676;5.812;2022-08-03T04:06:06;101396.44;;;19.76;72.82
59104;BME280;51449;51.676;5.812;2022-08-03T04:08:47;101400.84;;;19.77;72.87
59104;BME280;51449;51.676;5.812;2022-08-03T04:11:30;101401.25;;;19.79;73.34
59104;BME280;51449;51.676;5.812;2022-08-03T04:14:12;101392.06;;;19.79;73.32
59104;BME280;51449;51.676;5.812;2022-08-03T04:16:41;101399.25;;;19.80;73.73
59104;BME280;51449;51.676;5.812;2022-08-03T04:19:10;101404.47;;;19.81;73.42
59104;BME280;51449;51.676;5.812;2022-08-03T04:21:46;101397.69;;;19.82;73.66
59104;BME280;51449;51.676;5.812;2022-08-03T04:24:14;101403.34;;;19.86;73.54
59104;BME280;51449;51.676;5.812;2022-08-03T04:26:39;101398.59;;;19.90;73.42
59104;BME280;51449;51.676;5.812;2022-08-03T04:29:04;101392.22;;;19.93;73.38
59104;BME280;51449;51.676;5.812;2022-08-03T04:31:28;101395.44;;;19.95;73.44
59104;BME280;51449;51.676;5.812;2022-08-03T04:33:52;101398.25;;;19.99;73.31
59104;BME280;51449;51.676;5.812;2022-08-03T04:36:19;101400.69;;;20.00;73.45
59104;BME280;51449;51.676;5.812;2022-08-03T04:38:54;101400.72;;;20.04;73.38
59104;BME280;51449;51.676;5.812;2022-08-03T04:41:24;101404.31;;;20.04;73.41
59104;BME280;51449;51.676;5.812;2022-08-03T04:43:49;101395.53;;;20.06;73.08
59104;BME280;51449;51.676;5.812;2022-08-03T04:46:14;101409.16;;;20.07;73.21
59104;BME280;51449;51.676;5.812;2022-08-03T04:48:36;101395.59;;;20.09;73.43
59104;BME280;51449;51.676;5.812;2022-08-03T04:51:04;101405.19;;;20.12;73.38
59104;BME280;51449;51.676;5.812;2022-08-03T04:53:27;101408.38;;;20.14;73.66
59104;BME280;51449;51.676;5.812;2022-08-03T04:55:49;101408.03;;;20.16;73.62
59104;BME280;51449;51.676;5.812;2022-08-03T04:58:10;101404.44;;;20.19;73.56
59104;BME280;51449;51.676;5.812;2022-08-03T05:00:33;101406.09;;;20.23;73.73
59104;BME280;51449;51.676;5.812;2022-08-03T05:02:55;101403.72;;;20.25;73.64
59104;BME280;51449;51.676;5.812;2022-08-03T05:05:17;101407.72;;;20.28;73.88
59104;BME280;51449;51.676;5.812;2022-08-03T05:07:39;101409.34;;;20.29;73.71
59104;BME280;51449;51.676;5.812;2022-08-03T05:10:02;101412.97;;;20.33;73.65
59104;BME280;51449;51.676;5.812;2022-08-03T05:12:36;101414.59;;;20.34;73.65
59104;BME280;51449;51.676;5.812;2022-08-03T05:14:58;101416.59;;;20.37;74.29
59104;BME280;51449;51.676;5.812;2022-08-03T05:17:21;101416.22;;;20.39;74.34
59104;BME280;51449;51.676;5.812;2022-08-03T05:19:43;101409.84;;;20.42;74.20
59104;BME280;51449;51.676;5.812;2022-08-03T05:22:04;101418.28;;;20.45;74.48
59104;BME280;51449;51.676;5.812;2022-08-03T05:24:26;101415.88;;;20.47;74.46
59104;BME280;51449;51.676;5.812;2022-08-03T05:26:48;101420.72;;;20.50;74.57
59104;BME280;51449;51.676;5.812;2022-08-03T05:29:10;101426.34;;;20.54;74.35
59104;BME280;51449;51.676;5.812;2022-08-03T05:31:32;101419.63;;;20.59;74.53
59104;BME280;51449;51.676;5.812;2022-08-03T05:33:53;101428.84;;;20.63;74.30
59104;BME280;51449;51.676;5.812;2022-08-03T05:36:17;101430.47;;;20.67;74.16
59104;BME280;51449;51.676;5.812;2022-08-03T05:38:39;101420.09;;;20.71;74.28
59104;BME280;51449;51.676;5.812;2022-08-03T05:41:02;101425.38;;;20.80;74.00
59104;BME280;51449;51.676;5.812;2022-08-03T05:43:45;101429.44;;;20.90;73.81
59104;BME280;51449;51.676;5.812;2022-08-03T05:46:07;101429.88;;;20.99;73.46
59104;BME280;51449;51.676;5.812;2022-08-03T05:48:33;101432.34;;;21.08;73.45
59104;BME280;51449;51.676;5.812;2022-08-03T05:50:55;101430.78;;;21.14;73.06
59104;BME280;51449;51.676;5.812;2022-08-03T05:53:17;101431.22;;;21.23;72.98
59104;BME280;51449;51.676;5.812;2022-08-03T05:55:39;101439.66;;;21.30;72.66
59104;BME280;51449;51.676;5.812;2022-08-03T05:58:01;101441.72;;;21.37;72.30
59104;BME280;51449;51.676;5.812;2022-08-03T06:00:24;101446.59;;;21.44;72.24
59104;BME280;51449;51.676;5.812;2022-08-03T06:02:46;101438.22;;;21.51;72.04
59104;BME280;51449;51.676;5.812;2022-08-03T06:05:08;101435.41;;;21.58;72.17
59104;BME280;51449;51.676;5.812;2022-08-03T06:07:31;101440.25;;;21.65;71.64
59104;BME280;51449;51.676;5.812;2022-08-03T06:09:53;101431.88;;;21.68;71.40
59104;BME280;51449;51.676;5.812;2022-08-03T06:12:35;101442.69;;;21.73;70.92
59104;BME280;51449;51.676;5.812;2022-08-03T06:14:57;101449.50;;;21.79;70.77
59104;BME280;51449;51.676;5.812;2022-08-03T06:17:19;101440.31;;;21.86;70.68
59104;BME280;51449;51.676;5.812;2022-08-03T06:19:41;101450.34;;;21.94;70.39
59104;BME280;51449;51.676;5.812;2022-08-03T06:22:03;101457.19;;;22.04;70.54
59104;BME280;51449;51.676;5.812;2022-08-03T06:24:25;101441.19;;;22.12;70.22
59104;BME280;51449;51.676;5.812;2022-08-03T06:26:50;101445.25;;;22.21;70.02
59104;BME280;51449;51.676;5.812;2022-08-03T06:29:12;101446.06;;;22.29;69.67
59104;BME280;51449;51.676;5.812;2022-08-03T06:31:33;101442.84;;;22.34;69.00
59104;BME280;51449;51.676;5.812;2022-08-03T06:33:55;101444.84;;;22.41;68.62
59104;BME280;51449;51.676;5.812;2022-08-03T06:36:37;101443.25;;;22.47;68.42
59104;BME280;51449;51.676;5.812;2022-08-03T06:38:59;101446.47;;;22.56;67.92
59104;BME280;51449;51.676;5.812;2022-08-03T06:41:21;101443.66;;;22.63;67.77
59104;BME280;51449;51.676;5.812;2022-08-03T06:43:43;101450.47;;;22.73;67.56
59104;BME280;51449;51.676;5.812;2022-08-03T06:46:24;101451.25;;;22.88;67.18
59104;BME280;51449;51.676;5.812;2022-08-03T06:48:46;101446.03;;;22.97;66.73
59104;BME280;51449;51.676;5.812;2022-08-03T06:51:09;101443.63;;;23.10;66.25
59104;BME280;51449;51.676;5.812;2022-08-03T06:53:31;101450.41;;;23.20;65.44
59104;BME280;51449;51.676;5.812;2022-08-03T06:55:53;101455.22;;;23.34;65.31
59104;BME280;51449;51.676;5.812;2022-08-03T06:58:15;101454.34;;;23.47;65.15
59104;BME280;51449;51.676;5.812;2022-08-03T07:00:37;101452.69;;;23.61;64.71
59104;BME280;51449;51.676;5.812;2022-08-03T07:02:59;101448.63;;;23.69;63.66
59104;BME280;51449;51.676;5.812;2022-08-03T07:05:21;101445.78;;;23.72;62.73
59104;BME280;51449;51.676;5.812;2022-08-03T07:07:43;101451.00;;;23.81;62.94
59104;BME280;51449;51.676;5.812;2022-08-03T07:10:06;101445.72;;;23.90;62.77
59104;BME280;51449;51.676;5.812;2022-08-03T07:12:30;101456.13;;;24.01;62.74
59104;BME280;51449;51.676;5.812;2022-08-03T07:14:53;101451.19;;;24.16;62.66
59104;BME280;51449;51.676;5.812;2022-08-03T07:17:22;101454.72;;;24.30;61.66
59104;BME280;51449;51.676;5.812;2022-08-03T07:19:43;101455.44;;;24.38;60.77
59104;BME280;51449;51.676;5.812;2022-08-03T07:22:05;101458.66;;;24.44;60.22
59104;BME280;51449;51.676;5.812;2022-08-03T07:24:29;101455.00;;;24.50;59.95
59104;BME280;51449;51.676;5.812;2022-08-03T07:26:51;101453.72;;;24.59;59.66
59104;BME280;51449;51.676;5.812;2022-08-03T07:29:13;101457.69;;;24.65;59.58
59104;BME280;51449;51.676;5.812;2022-08-03T07:31:36;101465.25;;;24.75;60.03
59104;BME280;51449;51.676;5.812;2022-08-03T07:33:58;101461.09;;;24.90;60.00
59104;BME280;51449;51.676;5.812;2022-08-03T07:36:21;101468.22;;;25.02;59.64
59104;BME280;51449;51.676;5.812;2022-08-03T07:38:43;101466.53;;;25.08;58.52
59104;BME280;51449;51.676;5.812;2022-08-03T07:41:05;101466.94;;;25.10;58.27
59104;BME280;51449;51.676;5.812;2022-08-03T07:43:27;101465.22;;;25.16;57.81
59104;BME280;51449;51.676;5.812;2022-08-03T07:45:49;101461.16;;;25.25;57.51
59104;BME280;51449;51.676;5.812;2022-08-03T07:48:11;101464.69;;;25.32;56.95
59104;BME280;51449;51.676;5.812;2022-08-03T07:50:33;101462.59;;;25.40;57.21
59104;BME280;51449;51.676;5.812;2022-08-03T07:52:55;101466.91;;;25.48;56.45
59104;BME280;51449;51.676;5.812;2022-08-03T07:55:21;101468.06;;;25.54;56.27
59104;BME280;51449;51.676;5.812;2022-08-03T07:57:44;101461.56;;;25.57;56.49
59104;BME280;51449;51.676;5.812;2022-08-03T08:00:13;101466.34;;;25.64;56.34
59104;BME280;51449;51.676;5.812;2022-08-03T08:02:37;101461.84;;;25.70;56.47
59104;BME280;51449;51.676;5.812;2022-08-03T08:04:59;101450.78;;;25.79;56.63
59104;BME280;51449;51.676;5.812;2022-08-03T08:07:26;101457.53;;;25.93;56.52
59104;BME280;51449;51.676;5.812;2022-08-03T08:09:48;101458.47;;;26.10;55.82
59104;BME280;51449;51.676;5.812;2022-08-03T08:12:09;101459.97;;;26.18;54.70
59104;BME280;51449;51.676;5.812;2022-08-03T08:14:36;101467.91;;;26.26;54.69
59104;BME280;51449;51.676;5.812;2022-08-03T08:16:58;101456.06;;;26.35;53.96
59104;BME280;51449;51.676;5.812;2022-08-03T08:19:22;101455.19;;;26.38;53.98
59104;BME280;51449;51.676;5.812;2022-08-03T08:21:47;101462.34;;;26.46;53.66
59104;BME280;51449;51.676;5.812;2022-08-03T08:24:23;101452.13;;;26.53;53.82
59104;BME280;51449;51.676;5.812;2022-08-03T08:26:45;101458.94;;;26.59;53.73
59104;BME280;51449;51.676;5.812;2022-08-03T08:29:07;101454.25;;;26.72;53.47
59104;BME280;51449;51.676;5.812;2022-08-03T08:31:29;101458.91;;;26.82;52.85
59104;BME280;51449;51.676;5.812;2022-08-03T08:33:51;101457.13;;;26.92;52.29
59104;BME280;51449;51.676;5.812;2022-08-03T08:36:28;101457.00;;;26.99;52.99
59104;BME280;51449;51.676;5.812;2022-08-03T08:38:50;101454.72;;;27.14;52.66
59104;BME280;51449;51.676;5.812;2022-08-03T08:41:13;101457.28;;;27.28;51.91
59104;BME280;51449;51.676;5.812;2022-08-03T08:43:35;101459.47;;;27.41;52.29
59104;BME280;51449;51.676;5.812;2022-08-03T08:45:58;101457.59;;;27.54;51.07
59104;BME280;51449;51.676;5.812;2022-08-03T08:48:23;101450.09;;;27.64;50.27
59104;BME280;51449;51.676;5.812;2022-08-03T08:50:47;101449.16;;;27.70;50.23
59104;BME280;51449;51.676;5.812;2022-08-03T08:53:12;101452.91;;;27.84;49.59
59104;BME280;51449;51.676;5.812;2022-08-03T08:55:40;101454.00;;;27.90;48.95
59104;BME280;51449;51.676;5.812;2022-08-03T08:58:21;101457.91;;;27.96;49.17
59104;BME280;51449;51.676;5.812;2022-08-03T09:00:44;101454.91;;;28.03;48.59
59104;BME280;51449;51.676;5.812;2022-08-03T09:03:06;101457.59;;;28.10;48.59
59104;BME280;51449;51.676;5.812;2022-08-03T09:05:28;101450.50;;;28.18;48.02
59104;BME280;51449;51.676;5.812;2022-08-03T09:08:13;101448.81;;;28.21;47.57
59104;BME280;51449;51.676;5.812;2022-08-03T09:10:35;101438.19;;;28.25;47.04
59104;BME280;51449;51.676;5.812;2022-08-03T09:12:58;101451.03;;;28.30;46.74
59104;BME280;51449;51.676;5.812;2022-08-03T09:15:28;101452.91;;;28.36;46.92
59104;BME280;51449;51.676;5.812;2022-08-03T09:17:55;101452.31;;;28.45;47.21
59104;BME280;51449;51.676;5.812;2022-08-03T09:20:19;101455.25;;;28.58;46.09
59104;BME280;51449;51.676;5.812;2022-08-03T09:22:53;101443.38;;;28.63;46.05
59104;BME280;51449;51.676;5.812;2022-08-03T09:25:45;101457.69;;;28.72;45.69
59104;BME280;51449;51.676;5.812;2022-08-03T09:28:15;101449.09;;;28.76;45.32
59104;BME280;51449;51.676;5.812;2022-08-03T09:30:58;101444.59;;;28.78;44.85
59104;BME280;51449;51.676;5.812;2022-08-03T09:33:21;101448.91;;;28.83;44.86
59104;BME280;51449;51.676;5.812;2022-08-03T09:35:45;101448.72;;;28.90;44.64
59104;BME280;51449;51.676;5.812;2022-08-03T09:38:19;101444.09;;;28.96;43.90
59104;BME280;51449;51.676;5.812;2022-08-03T09:40:47;101438.22;;;29.03;44.29
59104;BME280;51449;51.676;5.812;2022-08-03T09:43:10;101443.72;;;29.11;43.68
59104;BME280;51449;51.676;5.812;2022-08-03T09:45:34;101446.72;;;29.20;43.93
59104;BME280;51449;51.676;5.812;2022-08-03T09:48:20;101451.88;;;29.38;43.43
59104;BME280;51449;51.676;5.812;2022-08-03T09:50:48;101446.25;;;29.51;43.51
59104;BME280;51449;51.676;5.812;2022-08-03T09:53:20;101462.84;;;29.65;43.30
59104;BME280;51449;51.676;5.812;2022-08-03T09:56:02;101452.78;;;29.77;42.26
59104;BME280;51449;51.676;5.812;2022-08-03T09:58:46;101453.13;;;29.79;41.13
59104;BME280;51449;51.676;5.812;2022-08-03T10:01:08;101451.56;;;29.78;42.48
59104;BME280;51449;51.676;5.812;2022-08-03T10:03:56;101452.13;;;29.85;42.33
59104;BME280;51449;51.676;5.812;2022-08-03T10:06:24;101448.59;;;29.94;42.16
59104;BME280;51449;51.676;5.812;2022-08-03T10:09:10;101452.91;;;30.12;41.66
59104;BME280;51449;51.676;5.812;2022-08-03T10:11:34;101446.56;;;30.20;41.18
59104;BME280;51449;51.676;5.812;2022-08-03T10:14:04;101448.41;;;30.27;41.02
59104;BME280;51449;51.676;5.812;2022-08-03T10:16:32;101436.47;;;30.32;40.70
59104;BME280;51449;51.676;5.812;2022-08-03T10:18:58;101448.72;;;30.42;40.80
59104;BME280;51449;51.676;5.812;2022-08-03T10:21:20;101443.94;;;30.52;40.29
59104;BME280;51449;51.676;5.812;2022-08-03T10:23:43;101432.41;;;30.55;40.64
59104;BME280;51449;51.676;5.812;2022-08-03T10:26:07;101439.00;;;30.65;40.86
59104;BME280;51449;51.676;5.812;2022-08-03T10:28:41;101442.28;;;30.76;40.20
59104;BME280;51449;51.676;5.812;2022-08-03T10:31:10;101434.72;;;30.82;40.24
59104;BME280;51449;51.676;5.812;2022-08-03T10:33:37;101430.41;;;30.90;40.30
59104;BME280;51449;51.676;5.812;2022-08-03T10:36:13;101436.50;;;31.02;40.50
59104;BME280;51449;51.676;5.812;2022-08-03T10:38:45;101429.31;;;31.10;39.62
59104;BME280;51449;51.676;5.812;2022-08-03T10:41:15;101425.00;;;31.05;38.79
59104;BME280;51449;51.676;5.812;2022-08-03T10:43:56;101420.56;;;31.04;39.86
59104;BME280;51449;51.676;5.812;2022-08-03T10:46:24;101416.81;;;31.07;39.73
59104;BME280;51449;51.676;5.812;2022-08-03T10:48:48;101418.13;;;31.16;40.03
59104;BME280;51449;51.676;5.812;2022-08-03T10:51:13;101421.22;;;31.30;40.23
59104;BME280;51449;51.676;5.812;2022-08-03T10:53:39;101417.53;;;31.43;39.89
59104;BME280;51449;51.676;5.812;2022-08-03T10:56:37;101414.75;;;31.52;39.38
59104;BME280;51449;51.676;5.812;2022-08-03T11:02:08;101405.38;;;31.73;39.26
59104;BME280;51449;51.676;5.812;2022-08-03T11:04:30;101400.66;;;31.89;39.14
59104;BME280;51449;51.676;5.812;2022-08-03T11:09:43;101394.25;;;32.07;37.77
59104;BME280;51449;51.676;5.812;2022-08-03T11:12:26;101384.41;;;31.98;36.54
59104;BME280;51449;51.676;5.812;2022-08-03T11:14:54;101391.78;;;31.87;37.50
59104;BME280;51449;51.676;5.812;2022-08-03T11:17:17;101388.78;;;31.81;37.24
59104;BME280;51449;51.676;5.812;2022-08-03T11:22:19;101382.06;;;31.66;36.44
59104;BME280;51449;51.676;5.812;2022-08-03T11:29:35;101375.25;;;31.63;37.20
59104;BME280;51449;51.676;5.812;2022-08-03T11:31:57;101381.44;;;31.71;37.45
59104;BME280;51449;51.676;5.812;2022-08-03T11:34:19;101375.19;;;31.85;37.81
59104;BME280;51449;51.676;5.812;2022-08-03T11:37:23;101379.72;;;32.14;38.34
59104;BME280;51449;51.676;5.812;2022-08-03T11:39:52;101382.78;;;32.29;37.36
59104;BME280;51449;51.676;5.812;2022-08-03T11:44:44;101378.47;;;32.24;35.36
59104;BME280;51449;51.676;5.812;2022-08-03T11:47:12;101379.41;;;32.12;35.85
59104;BME280;51449;51.676;5.812;2022-08-03T11:49:38;101376.38;;;32.06;36.07
59104;BME280;51449;51.676;5.812;2022-08-03T11:52:01;101380.00;;;32.07;36.63
59104;BME280;51449;51.676;5.812;2022-08-03T11:54:23;101377.97;;;32.16;36.40
59104;BME280;51449;51.676;5.812;2022-08-03T11:56:47;101387.34;;;32.35;36.35
59104;BME280;51449;51.676;5.812;2022-08-03T11:59:11;101380.88;;;32.44;35.90
59104;BME280;51449;51.676;5.812;2022-08-03T12:01:41;101383.28;;;32.55;35.78
59104;BME280;51449;51.676;5.812;2022-08-03T12:04:03;101388.53;;;32.66;35.49
59104;BME280;51449;51.676;5.812;2022-08-03T12:06:26;101387.41;;;32.72;34.15
59104;BME280;51449;51.676;5.812;2022-08-03T12:08:48;101381.88;;;32.69;34.76
59104;BME280;51449;51.676;5.812;2022-08-03T12:11:12;101389.97;;;32.70;34.51
59104;BME280;51449;51.676;5.812;2022-08-03T12:16:23;101378.84;;;32.72;34.60
59104;BME280;51449;51.676;5.812;2022-08-03T12:18:58;101382.22;;;32.80;34.08
59104;BME280;51449;51.676;5.812;2022-08-03T12:21:22;101376.81;;;32.73;34.44
59104;BME280;51449;51.676;5.812;2022-08-03T12:23:45;101383.31;;;32.73;35.03
59104;BME280;51449;51.676;5.812;2022-08-03T12:26:08;101387.91;;;32.80;34.79
59104;BME280;51449;51.676;5.812;2022-08-03T12:28:30;101391.53;;;32.90;34.27
59104;BME280;51449;51.676;5.812;2022-08-03T12:31:04;101378.41;;;32.92;33.19
59104;BME280;51449;51.676;5.812;2022-08-03T12:33:28;101384.88;;;32.83;33.68
59104;BME280;51449;51.676;5.812;2022-08-03T12:36:09;101383.59;;;32.84;33.73
59104;BME280;51449;51.676;5.812;2022-08-03T12:38:32;101383.59;;;32.84;33.81
59104;BME280;51449;51.676;5.812;2022-08-03T12:41:07;101384.56;;;32.91;33.50
59104;BME280;51449;51.676;5.812;2022-08-03T12:43:37;101383.16;;;32.95;32.80
59104;BME280;51449;51.676;5.812;2022-08-03T12:46:12;101375.88;;;32.85;33.24
59104;BME280;51449;51.676;5.812;2022-08-03T12:48:35;101389.16;;;32.79;34.19
59104;BME280;51449;51.676;5.812;2022-08-03T12:51:10;101384.88;;;32.83;34.19
59104;BME280;51449;51.676;5.812;2022-08-03T12:53:32;101387.75;;;32.93;33.35
59104;BME280;51449;51.676;5.812;2022-08-03T12:56:00;101380.44;;;33.01;33.73
59104;BME280;51449;51.676;5.812;2022-08-03T12:58:34;101376.00;;;33.00;33.85
59104;BME280;51449;51.676;5.812;2022-08-03T13:00:56;101376.63;;;33.04;33.78
59104;BME280;51449;51.676;5.812;2022-08-03T13:03:18;101368.38;;;33.15;33.39
59104;BME280;51449;51.676;5.812;2022-08-03T13:06:00;101374.88;;;33.25;32.74
59104;BME280;51449;51.676;5.812;2022-08-03T13:08:23;101370.13;;;33.22;32.59
59104;BME280;51449;51.676;5.812;2022-08-03T13:10:46;101371.03;;;33.28;33.09
59104;BME280;51449;51.676;5.812;2022-08-03T13:13:08;101363.69;;;33.45;32.78